Details From LJLJ - Ljubljana
To LOXZ - Zeltweg
Flight Number -
Tags Generated
Created
Modified
Stats Distance 60 nm / 110 km
Max Altitude 0 ft / 0 m
Waypoints 2
Social Downloads 0
Likes 0
Share VATSIM

Download

Looking for another format? Having issues loading an existing format? Contact us
Advertisement - Login to hide

Notes

Generated

Route

LJLJ LOXZ

ID Type Via Altitude Latitude Longitude Leg Dist Tot Dist Heading (true) Name
O LJLJ APT - 0 ft / 0 m 46.23249˚ 14.44039˚ - 0 nm - -
O LOXZ APT - 0 ft / 0 m 47.20382˚ 14.74032˚ 59 nm 59 nm 12° / 12° -

Altitude Profile

Advertisement - Login to hide

LJLJ

Details ICAO LJLJ (LJU)
Name LJUBLJANA
Region Slovenia
Timezone Europe/Ljubljana (UTC+1.0)
Stats Elevation 1,273 ft / 388 m (AMSL)
Location 46.223685° 14.457608°
Runways 1
Magnetic Variation 3.663° E

METAR

LJLJ 182200Z 00000KT 5000 BR BKN003 M04/M04 Q1027 NOSIG

Decode

TAF

TAF LJLJ 182000Z 1821/1921 VRB02KT 3500 BR BKN004 TEMPO 1821/1909 2000 OVC002 TEMPO 1909/1921 7000 NSW SCT005

Decode

Departure Runways

ID Width Length Bearing (true) Bearing (mag) Surface Threshold Offset Overrun Length
13 148 ft / 45 m 10,811 ft / 3,295 m 126.47° 122.81° Asphalt 0 ft / 0 m 0 ft / 0 m
31 148 ft / 45 m 10,811 ft / 3,295 m 306.49° 302.83° Asphalt 0 ft / 0 m 0 ft / 0 m

LOXZ

Details ICAO LOXZ
Name ZELTWEG
Region Austria
Timezone Europe/Vienna (UTC+1.0)
Stats Elevation 2,220 ft / 677 m (AMSL)
Location 47.203682° 14.745855°
Runways 2
Magnetic Variation 3.787° E

METAR

LOXZ 182050Z 23001KT 10KM SKC M10/M11 Q1026

Decode

TAF

Not found

Destination Runways

ID Width Length Bearing (true) Bearing (mag) Surface Threshold Offset Overrun Length
08 197 ft / 60 m 8,923 ft / 2,720 m 80.51° 76.72° Asphalt 492 ft / 150 m 115 ft / 35 m
08L 131 ft / 40 m 3,600 ft / 1,097 m 80.92° 77.13° Grass 0 ft / 0 m 115 ft / 35 m
26 197 ft / 60 m 8,923 ft / 2,720 m 260.53° 256.74° Asphalt 820 ft / 250 m 115 ft / 35 m
26R 131 ft / 40 m 3,600 ft / 1,097 m 260.93° 257.14° Grass 328 ft / 100 m 115 ft / 35 m